createdAt,value
2018-09-28T00:00:27.447Z,100585.95
2018-09-28T00:00:58.540Z,100585.91
2018-09-28T00:01:29.662Z,100586.34
2018-09-28T00:02:00.778Z,100589.34
2018-09-28T00:02:31.892Z,100585.90
2018-09-28T00:03:03.023Z,100585.01
2018-09-28T00:03:34.185Z,100583.26
2018-09-28T00:04:05.286Z,100584.96
2018-09-28T00:04:36.405Z,100591.88
2018-09-28T00:05:07.507Z,100587.99
2018-09-28T00:05:38.606Z,100588.84
2018-09-28T00:06:09.701Z,100590.13
2018-09-28T00:06:40.812Z,100590.56
2018-09-28T00:07:11.926Z,100591.86
2018-09-28T00:07:43.034Z,100587.98
2018-09-28T00:08:14.286Z,100587.98
2018-09-28T00:08:45.420Z,100589.67
2018-09-28T00:09:16.521Z,100589.23
2018-09-28T00:09:47.646Z,100592.25
2018-09-28T00:10:18.765Z,100589.17
2018-09-28T00:10:49.865Z,100585.28
2018-09-28T00:11:20.983Z,100582.70
2018-09-28T00:11:52.114Z,100583.98
2018-09-28T00:12:23.271Z,100582.25
2018-09-28T00:12:54.422Z,100586.58
2018-09-28T00:13:25.539Z,100583.09
2018-09-28T00:13:56.689Z,100572.75
2018-09-28T00:14:27.869Z,100579.65
2018-09-28T00:14:58.978Z,100580.50
2018-09-28T00:15:30.137Z,100577.47
2018-09-28T00:16:01.263Z,100573.59
2018-09-28T00:16:32.430Z,100578.75
2018-09-28T00:17:03.543Z,100576.58
2018-09-28T00:17:34.649Z,100578.76
2018-09-28T00:18:05.764Z,100574.88
2018-09-28T00:18:36.874Z,100573.53
2018-09-28T00:19:07.998Z,100572.23
2018-09-28T00:19:39.162Z,100570.95
2018-09-28T00:20:10.315Z,100570.11
2018-09-28T00:20:41.446Z,100567.97
2018-09-28T00:21:12.563Z,100567.52
2018-09-28T00:21:43.690Z,100568.36
2018-09-28T00:22:14.814Z,100563.18
2018-09-28T00:22:45.955Z,100566.62
2018-09-28T00:23:17.105Z,100562.30
2018-09-28T00:23:48.259Z,100568.36
2018-09-28T00:24:19.407Z,100567.06
2018-09-28T00:24:50.529Z,100568.36
2018-09-28T00:25:21.702Z,100567.08
2018-09-28T00:25:52.819Z,100568.81
2018-09-28T00:26:23.945Z,100571.41
2018-09-28T00:26:55.109Z,100570.11
2018-09-28T00:27:26.198Z,100576.17
2018-09-28T00:27:57.353Z,100575.33
2018-09-28T00:28:28.460Z,100571.00
2018-09-28T00:28:59.630Z,100571.85
2018-09-28T00:29:30.775Z,100571.84
2018-09-28T00:30:01.891Z,100565.38
2018-09-28T00:30:32.997Z,100570.55
2018-09-28T00:31:04.143Z,100570.09
2018-09-28T00:31:35.247Z,100572.69
2018-09-28T00:32:06.352Z,100566.66
2018-09-28T00:32:37.501Z,100567.52
2018-09-28T00:33:08.606Z,100563.63
2018-09-28T00:33:39.739Z,100563.19
2018-09-28T00:34:10.853Z,100564.03
2018-09-28T00:34:41.983Z,100556.67
2018-09-28T00:35:13.101Z,100558.42
2018-09-28T00:35:44.250Z,100556.67
2018-09-28T00:36:15.394Z,100557.97
2018-09-28T00:36:46.508Z,100558.81
2018-09-28T00:37:17.618Z,100555.36
2018-09-28T00:37:48.718Z,100548.85
2018-09-28T00:38:19.822Z,100552.27
2018-09-28T00:38:50.960Z,100550.53
2018-09-28T00:39:22.140Z,100556.14
2018-09-28T00:39:53.243Z,100551.38
2018-09-28T00:40:24.350Z,100554.40
2018-09-28T00:40:55.460Z,100554.40
2018-09-28T00:41:26.618Z,100548.80
2018-09-28T00:41:57.739Z,100550.53
2018-09-28T00:42:28.851Z,100551.38
2018-09-28T00:42:59.965Z,100547.94
2018-09-28T00:43:31.073Z,100547.94
2018-09-28T00:44:02.174Z,100546.19
2018-09-28T00:44:33.287Z,100545.75
2018-09-28T00:45:04.398Z,100546.61
2018-09-28T00:45:35.509Z,100540.58
2018-09-28T00:46:06.643Z,100546.61
2018-09-28T00:46:37.810Z,100544.90
2018-09-28T00:47:08.934Z,100542.31
2018-09-28T00:47:40.069Z,100546.61
2018-09-28T00:48:11.186Z,100541.03
2018-09-28T00:48:42.304Z,100541.47
2018-09-28T00:49:13.413Z,100538.44
2018-09-28T00:49:44.535Z,100538.00
2018-09-28T00:50:15.643Z,100541.87
2018-09-28T00:50:46.775Z,100544.91
2018-09-28T00:51:17.886Z,100536.27
2018-09-28T00:51:49.062Z,100537.14
2018-09-28T00:52:20.211Z,100536.69
2018-09-28T00:52:51.328Z,100535.80
2018-09-28T00:53:22.437Z,100531.03
2018-09-28T00:53:53.609Z,100530.17
2018-09-28T00:54:24.765Z,100526.75
2018-09-28T00:54:55.886Z,100521.98
2018-09-28T00:55:27.071Z,100526.31
2018-09-28T00:55:58.185Z,100525.46
2018-09-28T00:56:29.323Z,100522.87
2018-09-28T00:57:00.485Z,100521.13
2018-09-28T00:57:31.667Z,100526.29
2018-09-28T00:58:02.817Z,100523.27
2018-09-28T00:58:33.973Z,100518.50
2018-09-28T00:59:05.102Z,100519.38
2018-09-28T00:59:36.197Z,100521.53
2018-09-28T01:00:07.310Z,100516.36
2018-09-28T01:00:38.455Z,100517.20
2018-09-28T01:01:09.572Z,100518.09
2018-09-28T01:01:40.714Z,100522.82
2018-09-28T01:02:11.875Z,100522.42
2018-09-28T01:02:42.985Z,100522.87
2018-09-28T01:03:14.116Z,100515.96
2018-09-28T01:03:45.257Z,100521.13
2018-09-28T01:04:16.423Z,100519.80
2018-09-28T01:04:47.562Z,100516.80
2018-09-28T01:05:18.684Z,100522.38
2018-09-28T01:05:49.793Z,100521.08
2018-09-28T01:06:20.956Z,100524.09
2018-09-28T01:06:52.061Z,100521.91
2018-09-28T01:07:23.209Z,100523.66
2018-09-28T01:07:54.316Z,100525.35
2018-09-28T01:08:25.481Z,100528.83
2018-09-28T01:08:56.627Z,100527.12
2018-09-28T01:09:27.774Z,100525.84
2018-09-28T01:09:58.890Z,100526.24
2018-09-28T01:10:29.997Z,100526.24
2018-09-28T01:11:01.110Z,100530.97
2018-09-28T01:11:32.221Z,100533.98
2018-09-28T01:12:03.327Z,100528.37
2018-09-28T01:12:34.470Z,100530.52
2018-09-28T01:13:05.582Z,100524.89
2018-09-28T01:13:36.723Z,100531.80
2018-09-28T01:14:07.870Z,100527.48
2018-09-28T01:14:39.002Z,100526.23
2018-09-28T01:15:10.109Z,100525.84
2018-09-28T01:15:41.231Z,100524.06
2018-09-28T01:16:12.357Z,100525.34
2018-09-28T01:16:43.484Z,100525.34
2018-09-28T01:17:14.591Z,100521.90
2018-09-28T01:17:45.707Z,100525.77
2018-09-28T01:18:16.812Z,100521.91
2018-09-28T01:18:47.917Z,100521.06
2018-09-28T01:19:19.059Z,100521.96
2018-09-28T01:19:50.190Z,100520.22
2018-09-28T01:20:21.305Z,100520.62
2018-09-28T01:20:52.414Z,100520.62
2018-09-28T01:21:23.526Z,100523.25
2018-09-28T01:21:54.638Z,100521.53
2018-09-28T01:22:25.741Z,100520.24
2018-09-28T01:22:56.887Z,100520.24
2018-09-28T01:23:27.987Z,100522.87
2018-09-28T01:23:59.091Z,100519.84
2018-09-28T01:24:30.242Z,100521.13
2018-09-28T01:25:01.392Z,100523.72
2018-09-28T01:25:32.527Z,100521.13
2018-09-28T01:26:03.638Z,100521.98
2018-09-28T01:26:34.780Z,100521.58
2018-09-28T01:27:05.892Z,100518.99
2018-09-28T01:27:36.992Z,100523.73
2018-09-28T01:28:08.118Z,100521.13
2018-09-28T01:28:39.232Z,100525.86
2018-09-28T01:29:10.356Z,100525.47
2018-09-28T01:29:41.475Z,100528.50
2018-09-28T01:30:12.619Z,100525.92
2018-09-28T01:30:43.773Z,100530.25
2018-09-28T01:31:14.888Z,100528.11
2018-09-28T01:31:46.012Z,100524.23
2018-09-28T01:32:17.126Z,100524.23
2018-09-28T01:32:48.239Z,100525.13
2018-09-28T01:33:19.383Z,100526.42
2018-09-28T01:33:50.489Z,100520.41
2018-09-28T01:34:21.590Z,100524.30
2018-09-28T01:34:52.694Z,100523.45
2018-09-28T01:35:23.817Z,100523.50
2018-09-28T01:35:54.962Z,100521.77
2018-09-28T01:36:26.107Z,100524.80
2018-09-28T01:36:57.214Z,100523.55
2018-09-28T01:37:28.350Z,100526.15
2018-09-28T01:37:59.481Z,100524.91
2018-09-28T01:38:30.671Z,100524.46
2018-09-28T01:39:01.779Z,100524.05
2018-09-28T01:39:32.925Z,100526.64
2018-09-28T01:40:04.031Z,100518.89
2018-09-28T01:40:35.142Z,100524.51
2018-09-28T01:41:06.235Z,100525.40
2018-09-28T01:41:37.349Z,100524.11
2018-09-28T01:42:08.458Z,100525.85
2018-09-28T01:42:39.609Z,100527.16
2018-09-28T01:43:10.811Z,100521.13
2018-09-28T01:43:41.954Z,100527.60
2018-09-28T01:44:13.079Z,100526.76
2018-09-28T01:44:44.210Z,100521.18
2018-09-28T01:45:15.309Z,100525.95
2018-09-28T01:45:46.438Z,100528.10
2018-09-28T01:46:17.530Z,100527.69
2018-09-28T01:46:48.634Z,100525.96
2018-09-28T01:47:19.741Z,100526.41
2018-09-28T01:47:50.861Z,100526.00
2018-09-28T01:48:22.027Z,100522.08
2018-09-28T01:48:53.149Z,100522.12
2018-09-28T01:49:24.251Z,100516.95
2018-09-28T01:49:55.361Z,100514.36
2018-09-28T01:50:26.465Z,100513.52
2018-09-28T01:50:57.569Z,100510.52
2018-09-28T01:51:28.701Z,100515.70
2018-09-28T01:51:59.805Z,100513.95
2018-09-28T01:52:30.908Z,100514.41
2018-09-28T01:53:02.049Z,100513.95
2018-09-28T01:53:33.145Z,100516.55
2018-09-28T01:54:04.250Z,100514.41
2018-09-28T01:54:35.348Z,100511.81
2018-09-28T01:55:06.449Z,100518.28
2018-09-28T01:55:37.549Z,100516.14
2018-09-28T01:56:08.685Z,100511.81
2018-09-28T01:56:39.818Z,100516.58
2018-09-28T01:57:10.917Z,100511.81
2018-09-28T01:57:42.057Z,100513.56
2018-09-28T01:58:13.212Z,100508.38
2018-09-28T01:58:44.343Z,100507.98
2018-09-28T01:59:15.457Z,100506.68
2018-09-28T01:59:46.551Z,100506.23
2018-09-28T02:00:17.645Z,100512.33
2018-09-28T02:00:48.749Z,100513.19
2018-09-28T02:01:19.865Z,100513.19
2018-09-28T02:01:51.027Z,100511.48
2018-09-28T02:02:22.193Z,100513.63
2018-09-28T02:02:53.346Z,100506.75
2018-09-28T02:03:24.832Z,100509.75
2018-09-28T02:03:55.974Z,100505.88
2018-09-28T02:04:27.275Z,100508.05
2018-09-28T02:04:58.468Z,100507.61
2018-09-28T02:05:29.607Z,100501.98
2018-09-28T02:06:01.068Z,100505.88
2018-09-28T02:06:32.193Z,100507.16
2018-09-28T02:07:03.354Z,100501.58
2018-09-28T02:07:34.460Z,100506.31
2018-09-28T02:08:05.906Z,100504.16
2018-09-28T02:08:37.060Z,100501.58
2018-09-28T02:09:09.148Z,100498.99
2018-09-28T02:09:41.434Z,100499.44
2018-09-28T02:10:12.587Z,100494.67
2018-09-28T02:10:44.365Z,100497.25
2018-09-28T02:11:15.811Z,100501.58
2018-09-28T02:11:46.960Z,100499.84
2018-09-28T02:12:18.696Z,100500.28
2018-09-28T02:12:49.925Z,100502.43
2018-09-28T02:13:21.410Z,100498.11
2018-09-28T02:13:53.582Z,100498.95
2018-09-28T02:14:24.706Z,100541.24
2018-09-28T02:14:55.794Z,100501.06
2018-09-28T02:15:26.911Z,100490.27
2018-09-28T02:15:58.314Z,100492.86
2018-09-28T02:16:29.422Z,100491.13
2018-09-28T02:17:00.526Z,100497.63
2018-09-28T02:17:31.671Z,100497.63
2018-09-28T02:18:02.766Z,100497.18
2018-09-28T02:18:33.865Z,100492.86
2018-09-28T02:19:05.007Z,100497.59
2018-09-28T02:19:36.111Z,100499.77
2018-09-28T02:20:07.210Z,100495.84
2018-09-28T02:20:38.330Z,100499.28
2018-09-28T02:21:09.489Z,100497.98
2018-09-28T02:21:40.583Z,100494.95
2018-09-28T02:22:11.693Z,100491.52
2018-09-28T02:22:42.803Z,100499.69
2018-09-28T02:23:13.905Z,100497.09
2018-09-28T02:23:45.017Z,100497.09
2018-09-28T02:24:16.109Z,100485.86
2018-09-28T02:24:47.218Z,100500.98
2018-09-28T02:25:18.318Z,100491.48
2018-09-28T02:25:49.489Z,100494.91
2018-09-28T02:26:20.651Z,100492.77
2018-09-28T02:26:51.749Z,100495.35
2018-09-28T02:27:22.873Z,100497.94
2018-09-28T02:27:53.994Z,100494.47
2018-09-28T02:28:25.103Z,100496.65
2018-09-28T02:28:56.239Z,100494.91
2018-09-28T02:29:27.352Z,100492.33
2018-09-28T02:29:58.471Z,100494.51
2018-09-28T02:30:29.572Z,100493.22
2018-09-28T02:31:00.733Z,100498.80
2018-09-28T02:31:31.835Z,100494.91
2018-09-28T02:32:02.977Z,100497.05
2018-09-28T02:32:34.099Z,100496.65
2018-09-28T02:33:05.247Z,100493.17
2018-09-28T02:33:36.366Z,100493.62
2018-09-28T02:34:07.475Z,100499.23
2018-09-28T02:34:38.588Z,100498.79
2018-09-28T02:35:09.699Z,100490.55
2018-09-28T02:35:40.801Z,100489.25
2018-09-28T02:36:11.953Z,100492.28
2018-09-28T02:36:43.072Z,100490.54
2018-09-28T02:37:14.171Z,100490.09
2018-09-28T02:37:45.285Z,100485.37
2018-09-28T02:38:16.385Z,100486.66
2018-09-28T02:38:47.537Z,100491.88
2018-09-28T02:39:18.646Z,100490.14
2018-09-28T02:39:49.806Z,100486.70
2018-09-28T02:40:20.921Z,100480.23
2018-09-28T02:40:52.077Z,100479.34
2018-09-28T02:41:23.247Z,100481.09
2018-09-28T02:41:54.406Z,100479.38
2018-09-28T02:42:25.501Z,100481.53
2018-09-28T02:42:56.637Z,100480.23
2018-09-28T02:43:27.761Z,100485.81
2018-09-28T02:43:58.877Z,100481.94
2018-09-28T02:44:30.024Z,100486.66
2018-09-28T02:45:01.123Z,100483.67
2018-09-28T02:45:32.241Z,100493.57
2018-09-28T02:46:03.382Z,100484.52
2018-09-28T02:46:34.626Z,100491.84
2018-09-28T02:47:05.756Z,100484.52
2018-09-28T02:47:36.883Z,100490.14
2018-09-28T02:48:08.003Z,100484.08
2018-09-28T02:48:39.112Z,100484.96
2018-09-28T02:49:10.307Z,100488.84
2018-09-28T02:49:41.411Z,100490.14
2018-09-28T02:50:12.521Z,100484.97
2018-09-28T02:50:43.673Z,100485.81
2018-09-28T02:51:14.775Z,100488.41
2018-09-28T02:51:45.925Z,100486.66
2018-09-28T02:52:17.026Z,100481.97
2018-09-28T02:52:48.162Z,100485.01
2018-09-28T02:53:19.270Z,100484.13
2018-09-28T02:53:50.402Z,100483.27
2018-09-28T02:54:21.506Z,100485.81
2018-09-28T02:54:52.629Z,100492.72
2018-09-28T02:55:23.756Z,100486.22
2018-09-28T02:55:54.860Z,100489.69
2018-09-28T02:56:25.974Z,100488.40
2018-09-28T02:56:57.139Z,100494.42
2018-09-28T02:57:28.269Z,100496.16
2018-09-28T02:57:59.376Z,100494.86
2018-09-28T02:58:30.622Z,100488.40
2018-09-28T02:59:01.761Z,100493.53
2018-09-28T02:59:32.887Z,100494.82
2018-09-28T03:00:03.999Z,100487.91
2018-09-28T03:00:35.101Z,100493.92
2018-09-28T03:01:06.193Z,100490.45
2018-09-28T03:01:37.352Z,100492.59
2018-09-28T03:02:08.489Z,100490.44
2018-09-28T03:02:39.617Z,100486.52
2018-09-28T03:03:10.748Z,100489.10
2018-09-28T03:03:41.890Z,100493.83
2018-09-28T03:04:12.991Z,100489.95
2018-09-28T03:04:44.111Z,100490.39
2018-09-28T03:05:15.234Z,100489.50
2018-09-28T03:05:46.340Z,100486.47
2018-09-28T03:06:17.488Z,100484.27
2018-09-28T03:06:48.622Z,100486.41
2018-09-28T03:07:19.728Z,100480.74
2018-09-28T03:07:50.822Z,100478.99
2018-09-28T03:08:21.928Z,100484.61
2018-09-28T03:08:53.058Z,100478.15
2018-09-28T03:09:24.145Z,100481.14
2018-09-28T03:09:55.265Z,100480.70
2018-09-28T03:10:26.360Z,100482.88
2018-09-28T03:10:57.460Z,100479.84
2018-09-28T03:11:28.570Z,100482.02
2018-09-28T03:11:59.684Z,100476.86
2018-09-28T03:12:30.820Z,100471.24
2018-09-28T03:13:01.964Z,100472.13
2018-09-28T03:13:33.093Z,100470.40
2018-09-28T03:14:04.256Z,100465.22
2018-09-28T03:14:35.395Z,100467.37
2018-09-28T03:15:06.512Z,100465.62
2018-09-28T03:15:37.620Z,100460.46
2018-09-28T03:16:08.730Z,100465.22
2018-09-28T03:16:39.822Z,100464.78
2018-09-28T03:17:10.925Z,100464.77
2018-09-28T03:17:42.030Z,100460.45
2018-09-28T03:18:13.190Z,100459.56
2018-09-28T03:18:44.308Z,100463.44
2018-09-28T03:19:15.470Z,100465.13
2018-09-28T03:19:46.580Z,100464.28
2018-09-28T03:20:17.705Z,100469.01
2018-09-28T03:20:48.810Z,100475.05
2018-09-28T03:21:19.923Z,100471.18
2018-09-28T03:21:51.045Z,100473.31
2018-09-28T03:22:22.184Z,100479.78
2018-09-28T03:22:53.324Z,100475.02
2018-09-28T03:23:24.440Z,100480.18
2018-09-28T03:23:55.606Z,100476.75
2018-09-28T03:24:26.707Z,100475.02
2018-09-28T03:24:57.838Z,100486.20
2018-09-28T03:25:28.995Z,100479.72
2018-09-28T03:26:00.141Z,100479.28
2018-09-28T03:26:31.248Z,100482.75
2018-09-28T03:27:02.392Z,100475.84
2018-09-28T03:27:33.525Z,100475.84
2018-09-28T03:28:04.627Z,100474.95
2018-09-28T03:28:35.739Z,100474.51
2018-09-28T03:29:06.901Z,100477.09
2018-09-28T03:29:38.024Z,100468.48
2018-09-28T03:30:09.157Z,100472.76
2018-09-28T03:30:40.294Z,100471.47
2018-09-28T03:31:11.460Z,100474.94
2018-09-28T03:31:42.610Z,100474.94
2018-09-28T03:32:13.768Z,100476.64
2018-09-28T03:32:44.921Z,100477.08
2018-09-28T03:33:16.065Z,100478.81
2018-09-28T03:33:47.174Z,100480.51
2018-09-28T03:34:18.334Z,100475.73
2018-09-28T03:34:49.440Z,100480.91
2018-09-28T03:35:20.541Z,100483.48
2018-09-28T03:35:51.697Z,100481.34
2018-09-28T03:36:22.793Z,100482.63
2018-09-28T03:36:53.908Z,100483.92
2018-09-28T03:37:25.005Z,100480.89
2018-09-28T03:37:56.109Z,100482.62
2018-09-28T03:38:27.235Z,100477.02
2018-09-28T03:38:58.436Z,100479.98
2018-09-28T03:39:29.546Z,100477.85
2018-09-28T03:40:00.646Z,100474.83
2018-09-28T03:40:31.804Z,100477.85
2018-09-28T03:41:02.885Z,100481.73
2018-09-28T03:41:33.985Z,100478.27
2018-09-28T03:42:05.105Z,100472.25
2018-09-28T03:42:36.207Z,100472.25
2018-09-28T03:43:07.306Z,100471.40
2018-09-28T03:43:38.404Z,100474.39
2018-09-28T03:44:09.590Z,100477.85
2018-09-28T03:44:40.691Z,100479.10
2018-09-28T03:45:11.792Z,100470.50
2018-09-28T03:45:42.896Z,100468.77
2018-09-28T03:46:14.049Z,100470.90
2018-09-28T03:46:45.191Z,100473.07
2018-09-28T03:47:16.341Z,100469.16
2018-09-28T03:47:47.467Z,100466.56
2018-09-28T03:48:18.580Z,100473.02
2018-09-28T03:48:49.704Z,100476.45
2018-09-28T03:49:20.841Z,100472.58
2018-09-28T03:49:51.973Z,100467.41
2018-09-28T03:50:23.083Z,100471.29
2018-09-28T03:50:54.202Z,100468.70
2018-09-28T03:51:25.422Z,100471.72
2018-09-28T03:51:56.491Z,100470.43
2018-09-28T03:52:27.631Z,100473.02
2018-09-28T03:52:58.781Z,100496.27
2018-09-28T03:53:29.893Z,100473.02
2018-09-28T03:54:01.027Z,100474.77
2018-09-28T03:54:32.126Z,100470.44
2018-09-28T03:55:03.242Z,100470.42
2018-09-28T03:55:34.362Z,100462.67
2018-09-28T03:56:05.521Z,100467.84
2018-09-28T03:56:36.683Z,100471.72
2018-09-28T03:57:07.794Z,100469.14
2018-09-28T03:57:38.887Z,100470.44
2018-09-28T03:58:10.005Z,100467.86
2018-09-28T03:58:41.114Z,100469.59
2018-09-28T03:59:12.214Z,100468.30
2018-09-28T03:59:43.309Z,100469.59
2018-09-28T04:00:14.435Z,100473.47
2018-09-28T04:00:45.599Z,100469.59
2018-09-28T04:01:16.695Z,100471.33
2018-09-28T04:01:47.825Z,100475.21
2018-09-28T04:02:18.935Z,100473.48
2018-09-28T04:02:50.060Z,100474.36
2018-09-28T04:03:21.191Z,100476.95
2018-09-28T04:03:52.305Z,100475.66
2018-09-28T04:04:23.435Z,100471.34
2018-09-28T04:04:54.541Z,100472.19
2018-09-28T04:05:25.736Z,100470.90
2018-09-28T04:05:56.853Z,100473.93
2018-09-28T04:06:28.000Z,100424.54
2018-09-28T04:06:59.110Z,100470.90
2018-09-28T04:07:30.228Z,100477.36
2018-09-28T04:08:01.332Z,100477.40
2018-09-28T04:08:32.461Z,100476.97
2018-09-28T04:09:03.576Z,100478.25
2018-09-28T04:09:34.714Z,100479.10
2018-09-28T04:10:05.864Z,100476.12
2018-09-28T04:10:37.007Z,100476.56
2018-09-28T04:11:08.135Z,100474.84
2018-09-28T04:11:39.254Z,100470.52
2018-09-28T04:12:10.400Z,100472.23
2018-09-28T04:12:41.513Z,100466.19
2018-09-28T04:13:12.645Z,100469.66
2018-09-28T04:13:43.805Z,100467.91
2018-09-28T04:14:14.934Z,100498.92
2018-09-28T04:14:46.049Z,100464.94
2018-09-28T04:15:17.278Z,100458.03
2018-09-28T04:15:48.421Z,100458.03
2018-09-28T04:16:19.536Z,100455.02
2018-09-28T04:16:50.634Z,100452.43
2018-09-28T04:17:21.748Z,100455.91
2018-09-28T04:17:52.877Z,100458.48
2018-09-28T04:18:24.011Z,100459.79
2018-09-28T04:18:55.123Z,100458.95
2018-09-28T04:19:26.256Z,100462.41
2018-09-28T04:19:57.396Z,100454.22
2018-09-28T04:20:28.532Z,100460.28
2018-09-28T04:20:59.716Z,100457.70
2018-09-28T04:21:30.814Z,100457.70
2018-09-28T04:22:02.033Z,100458.99
2018-09-28T04:22:33.115Z,100462.47
2018-09-28T04:23:04.233Z,100455.56
2018-09-28T04:23:35.346Z,100455.58
2018-09-28T04:24:06.501Z,100458.60
2018-09-28T04:24:37.620Z,100452.58
2018-09-28T04:25:08.735Z,100456.47
2018-09-28T04:25:39.856Z,100456.97
2018-09-28T04:26:11.592Z,100463.05
2018-09-28T04:26:42.706Z,100456.69
2018-09-28T04:27:13.821Z,100460.20
2018-09-28T04:27:44.937Z,100458.12
2018-09-28T04:28:16.097Z,100457.77
2018-09-28T04:28:47.274Z,100455.70
2018-09-28T04:29:18.396Z,100458.44
2018-09-28T04:29:49.521Z,100461.09
2018-09-28T04:30:20.625Z,100461.19
2018-09-28T04:30:51.746Z,100459.94
2018-09-28T04:31:22.877Z,100457.84
2018-09-28T04:31:53.975Z,100454.41
2018-09-28T04:32:25.081Z,100459.19
2018-09-28T04:32:56.260Z,100449.70
2018-09-28T04:33:27.366Z,100455.36
2018-09-28T04:33:58.522Z,100453.20
2018-09-28T04:34:29.682Z,100455.80
2018-09-28T04:35:00.812Z,100456.24
2018-09-28T04:35:31.935Z,100458.83
2018-09-28T04:36:03.117Z,100454.49
2018-09-28T04:36:34.220Z,100457.08
2018-09-28T04:37:05.346Z,100456.18
2018-09-28T04:37:36.493Z,100454.45
2018-09-28T04:38:07.597Z,100457.05
2018-09-28T04:38:38.713Z,100457.48
2018-09-28T04:39:09.819Z,100457.06
2018-09-28T04:39:41.037Z,100456.64
2018-09-28T04:40:12.136Z,100457.94
2018-09-28T04:40:43.257Z,100456.20
2018-09-28T04:41:14.367Z,100461.41
2018-09-28T04:41:45.465Z,100463.11
2018-09-28T04:42:16.553Z,100459.22
2018-09-28T04:42:47.713Z,100454.47
2018-09-28T04:43:18.829Z,100457.50
2018-09-28T04:43:49.927Z,100459.69
2018-09-28T04:44:21.026Z,100453.64
2018-09-28T04:44:52.169Z,100460.98
2018-09-28T04:45:23.284Z,100458.38
2018-09-28T04:45:54.431Z,100460.12
2018-09-28T04:46:25.541Z,100454.92
2018-09-28T04:46:56.673Z,100463.11
2018-09-28T04:47:27.778Z,100465.23
2018-09-28T04:47:58.933Z,100466.08
2018-09-28T04:48:30.072Z,100469.94
2018-09-28T04:49:01.195Z,100464.73
2018-09-28T04:49:32.296Z,100468.61
2018-09-28T04:50:03.448Z,100472.94
2018-09-28T04:50:34.578Z,100467.31
2018-09-28T04:51:05.730Z,100465.17
2018-09-28T04:51:36.840Z,100463.43
2018-09-28T04:52:07.971Z,100462.12
2018-09-28T04:52:39.080Z,100466.91
2018-09-28T04:53:10.228Z,100462.58
2018-09-28T04:53:41.361Z,100458.69
2018-09-28T04:54:12.457Z,100464.73
2018-09-28T04:54:43.550Z,100464.76
2018-09-28T04:55:14.711Z,100465.23
2018-09-28T04:55:45.864Z,100469.12
2018-09-28T04:56:16.961Z,100463.09
2018-09-28T04:56:48.075Z,100460.10
2018-09-28T04:57:19.190Z,100457.06
2018-09-28T04:57:50.349Z,100465.30
2018-09-28T04:58:21.450Z,100460.13
2018-09-28T04:58:52.587Z,100465.30
2018-09-28T04:59:23.719Z,100456.22
2018-09-28T04:59:54.845Z,100454.50
2018-09-28T05:00:25.962Z,100454.90
2018-09-28T05:00:57.098Z,100453.62
2018-09-28T05:01:28.192Z,100452.30
2018-09-28T05:01:59.311Z,100446.23
2018-09-28T05:02:30.406Z,100452.31
2018-09-28T05:03:01.521Z,100447.96
2018-09-28T05:03:32.854Z,100454.45
2018-09-28T05:04:04.006Z,100454.45
2018-09-28T05:04:35.151Z,100454.89
2018-09-28T05:05:06.253Z,100450.12
2018-09-28T05:05:37.354Z,100452.70
2018-09-28T05:06:08.450Z,100449.25
2018-09-28T05:06:39.580Z,100446.68
2018-09-28T05:07:10.727Z,100448.41
2018-09-28T05:07:41.828Z,100445.80
2018-09-28T05:08:12.938Z,100446.22
2018-09-28T05:08:44.034Z,100447.94
2018-09-28T05:09:15.139Z,100449.66
2018-09-28T05:09:46.247Z,100449.67
2018-09-28T05:10:17.362Z,100452.66
2018-09-28T05:10:48.491Z,100453.08
2018-09-28T05:11:19.605Z,100446.15
2018-09-28T05:11:50.710Z,100451.34
2018-09-28T05:12:21.873Z,100449.14
2018-09-28T05:12:52.997Z,100451.30
2018-09-28T05:13:24.137Z,100448.27
2018-09-28T05:13:55.241Z,100446.11
2018-09-28T05:14:26.347Z,100450.44
2018-09-28T05:14:57.464Z,100451.72
2018-09-28T05:15:28.590Z,100444.81
2018-09-28T05:15:59.695Z,100445.23
2018-09-28T05:16:30.790Z,100445.62
2018-09-28T05:17:01.949Z,100440.87
2018-09-28T05:17:33.106Z,100444.75
2018-09-28T05:18:04.203Z,100446.93
2018-09-28T05:18:35.305Z,100442.17
2018-09-28T05:19:06.402Z,100448.64
2018-09-28T05:19:37.624Z,100452.09
2018-09-28T05:20:08.676Z,100447.34
2018-09-28T05:20:39.766Z,100443.90
2018-09-28T05:21:10.863Z,100451.27
2018-09-28T05:21:42.034Z,100448.23
2018-09-28T05:22:13.143Z,100455.59
2018-09-28T05:22:44.245Z,100448.28
2018-09-28T05:23:15.372Z,100453.03
2018-09-28T05:23:46.462Z,100450.02
2018-09-28T05:24:17.577Z,100451.73
2018-09-28T05:24:48.685Z,100457.80
2018-09-28T05:25:19.859Z,100453.05
2018-09-28T05:25:50.979Z,100455.20
2018-09-28T05:26:22.099Z,100453.47
2018-09-28T05:26:53.241Z,100454.77
2018-09-28T05:27:24.350Z,100459.09
2018-09-28T05:27:55.452Z,100453.05
2018-09-28T05:28:26.581Z,100452.59
2018-09-28T05:28:57.703Z,100455.20
2018-09-28T05:29:28.848Z,100454.77
2018-09-28T05:29:59.978Z,100454.33
2018-09-28T05:30:31.095Z,100456.92
2018-09-28T05:31:02.300Z,100452.53
2018-09-28T05:31:33.378Z,100459.00
2018-09-28T05:32:04.579Z,100453.39
2018-09-28T05:32:35.794Z,100448.63
2018-09-28T05:33:06.963Z,100456.84
2018-09-28T05:33:37.958Z,100458.56
2018-09-28T05:34:09.049Z,100462.02
2018-09-28T05:34:40.146Z,100455.97
2018-09-28T05:35:11.258Z,100459.86
2018-09-28T05:35:42.393Z,100462.89
2018-09-28T05:36:13.542Z,100462.03
2018-09-28T05:36:44.665Z,100463.75
2018-09-28T05:37:15.887Z,100462.06
2018-09-28T05:37:46.912Z,100458.63
2018-09-28T05:38:18.070Z,100461.64
2018-09-28T05:38:49.180Z,100462.06
2018-09-28T05:39:20.297Z,100462.06
2018-09-28T05:39:51.432Z,100457.32
2018-09-28T05:40:22.550Z,100462.14
2018-09-28T05:40:53.699Z,100460.42
2018-09-28T05:41:24.830Z,100460.37
2018-09-28T05:41:55.981Z,100461.22
2018-09-28T05:42:27.081Z,100459.00
2018-09-28T05:42:58.218Z,100456.38
2018-09-28T05:43:29.337Z,100453.36
2018-09-28T05:44:00.469Z,100449.05
2018-09-28T05:44:31.592Z,100451.66
2018-09-28T05:45:02.744Z,100449.91
2018-09-28T05:45:33.870Z,100454.20
2018-09-28T05:46:04.986Z,100452.05
2018-09-28T05:46:36.168Z,100448.55
2018-09-28T05:47:07.257Z,100445.47
2018-09-28T05:47:38.422Z,100444.95
2018-09-28T05:48:09.522Z,100447.48
2018-09-28T05:48:40.636Z,100446.54
2018-09-28T05:49:11.754Z,100446.87
2018-09-28T05:49:42.869Z,100442.05
2018-09-28T05:50:13.965Z,100446.75
2018-09-28T05:50:45.084Z,100448.87
2018-09-28T05:51:16.231Z,100443.63
2018-09-28T05:51:47.351Z,100452.22
2018-09-28T05:52:18.478Z,100450.95
2018-09-28T05:52:49.668Z,100448.02
2018-09-28T05:53:20.811Z,100448.51
2018-09-28T05:53:51.935Z,100449.36
2018-09-28T05:54:23.055Z,100449.41
2018-09-28T05:54:54.177Z,100447.20
2018-09-28T05:55:25.268Z,100444.16